Time;durP1;ratioP1;P1;durP2;ratioP2;P2;SDS_P1;SDS_P2;PMS_P1;PMS_P2;Temp;Humidity;BMP_temperature;BMP_pressure;BME280_temperature;BME280_humidity;BME280_pressure;Samples;Min_cycle;Max_cycle;Signal;HPM_P1;HPM_P2
2023/08/22 00:01:22;;;;;;;;;;;;;;;19.62;82.35;102009.59;5079099;28;1263;-75
2023/08/22 00:03:48;;;;;;;;;;;;;;;19.61;82.19;102007.94;5083283;28;1159;-75
2023/08/22 00:06:13;;;;;;;;;;;;;;;19.59;82.39;102006.44;5077873;28;1188;-75
2023/08/22 00:08:38;;;;;;;;;;;;;;;19.60;82.50;102003.66;5073800;28;1055;-75
2023/08/22 00:11:03;;;;;;;;;;;;;;;19.61;82.16;102002.69;5072804;28;1310;-75
2023/08/22 00:13:29;;;;;;;;;;;;;;;19.61;82.52;102002.69;5078123;28;1220;-74
2023/08/22 00:15:58;;;;;;;;;;;;;;;19.60;82.44;102001.00;5074027;28;1083;-76
2023/08/22 00:18:23;;;;;;;;;;;;;;;19.59;82.51;102004.63;5062782;28;1925;-75
2023/08/22 00:20:49;;;;;;;;;;;;;;;19.58;82.33;102000.34;5059923;28;1271;-75
2023/08/22 00:23:14;;;;;;;;;;;;;;;19.55;82.54;102005.88;5071900;28;1514;-74
2023/08/22 00:25:40;;;;;;;;;;;;;;;19.55;82.43;101998.00;5071262;28;1495;-75
2023/08/22 00:28:05;;;;;;;;;;;;;;;19.54;82.57;102001.59;5074016;28;1177;-75
2023/08/22 00:30:30;;;;;;;;;;;;;;;19.53;82.77;101999.13;5071274;28;1279;-74
2023/08/22 00:32:55;;;;;;;;;;;;;;;19.46;82.73;101998.94;5078800;28;1157;-75
2023/08/22 00:35:24;;;;;;;;;;;;;;;19.42;82.90;101997.59;5071977;28;1197;-75
2023/08/22 00:37:49;;;;;;;;;;;;;;;19.35;83.04;101992.13;5076594;28;1897;-74
2023/08/22 00:40:15;;;;;;;;;;;;;;;19.31;83.39;101984.69;5072958;28;1212;-76
2023/08/22 00:42:40;;;;;;;;;;;;;;;19.27;83.57;101989.44;5074255;28;1177;-75
2023/08/22 00:45:05;;;;;;;;;;;;;;;19.25;83.23;101990.56;5073920;28;1200;-74
2023/08/22 00:47:31;;;;;;;;;;;;;;;19.19;83.52;101991.19;5051375;28;1301;-75
2023/08/22 00:49:56;;;;;;;;;;;;;;;19.10;83.66;101980.59;5074472;28;1212;-74
2023/08/22 00:52:21;;;;;;;;;;;;;;;19.01;83.86;101983.31;5072555;28;1328;-75
2023/08/22 00:54:47;;;;;;;;;;;;;;;18.93;84.43;101978.81;5066503;28;1400;-75
2023/08/22 00:57:13;;;;;;;;;;;;;;;18.88;84.68;101978.44;5070713;28;1902;-74
2023/08/22 00:59:38;;;;;;;;;;;;;;;18.85;84.85;101978.75;5069847;28;1340;-74
2023/08/22 01:02:04;;;;;;;;;;;;;;;18.85;84.88;101978.75;5066990;28;1462;-74
2023/08/22 01:04:29;;;;;;;;;;;;;;;18.82;84.97;101968.53;5046830;28;1344;-75
2023/08/22 01:07:13;;;;;;;;;;;;;;;18.78;85.27;101972.44;5057136;28;1148;-73
2023/08/22 01:09:47;;;;;;;;;;;;;;;18.75;85.31;101977.97;5075785;28;1329;-74
2023/08/22 01:12:18;;;;;;;;;;;;;;;18.71;85.75;101976.66;5078696;28;1087;-73
2023/08/22 01:14:46;;;;;;;;;;;;;;;18.72;85.90;101979.13;5069732;28;1136;-74
2023/08/22 01:17:13;;;;;;;;;;;;;;;18.72;86.02;101983.56;5047409;28;2008;-74
2023/08/22 01:19:39;;;;;;;;;;;;;;;18.71;86.05;101981.91;5071210;28;1272;-74
2023/08/22 01:22:04;;;;;;;;;;;;;;;18.72;86.41;101978.31;5055709;28;1684;-74
2023/08/22 01:24:29;;;;;;;;;;;;;;;18.69;86.51;101974.16;5068240;28;1097;-74
2023/08/22 01:26:54;;;;;;;;;;;;;;;18.69;86.63;101973.34;5074670;28;1036;-73
2023/08/22 01:29:24;;;;;;;;;;;;;;;18.69;86.59;101968.06;5069991;28;1116;-75
2023/08/22 01:31:49;;;;;;;;;;;;;;;18.68;86.89;101955.91;5061164;28;1283;-75
2023/08/22 01:34:20;;;;;;;;;;;;;;;18.67;86.91;101956.88;5070524;28;1087;-74
2023/08/22 01:36:45;;;;;;;;;;;;;;;18.72;87.04;101962.53;5066260;28;1906;-74
2023/08/22 01:39:12;;;;;;;;;;;;;;;18.75;87.25;101957.81;5071802;28;1168;-74
2023/08/22 01:41:37;;;;;;;;;;;;;;;18.79;87.12;101963.56;5066749;28;1740;-75
2023/08/22 01:44:03;;;;;;;;;;;;;;;18.79;86.77;101959.13;5073583;28;1230;-75
2023/08/22 01:46:28;;;;;;;;;;;;;;;18.79;86.85;101953.06;5054204;28;1232;-76
2023/08/22 01:48:53;;;;;;;;;;;;;;;18.77;86.92;101952.41;5054978;28;1288;-75
2023/08/22 01:51:19;;;;;;;;;;;;;;;18.74;86.97;101960.56;5072561;28;1205;-75
2023/08/22 01:53:44;;;;;;;;;;;;;;;18.71;86.82;101955.63;5067375;28;1495;-75
2023/08/22 01:56:09;;;;;;;;;;;;;;;18.65;87.01;101941.25;5054110;28;1913;-75
2023/08/22 01:58:34;;;;;;;;;;;;;;;18.63;87.08;101945.00;5071081;28;1166;-75
2023/08/22 02:01:07;;;;;;;;;;;;;;;18.58;87.32;101946.28;5071169;28;1165;-75
2023/08/22 02:03:32;;;;;;;;;;;;;;;18.55;87.73;101946.56;5068843;28;1228;-75
2023/08/22 02:05:57;;;;;;;;;;;;;;;18.57;87.84;101949.06;5066823;28;1191;-75
2023/08/22 02:08:22;;;;;;;;;;;;;;;18.58;87.97;101946.28;5067826;28;1105;-75
2023/08/22 02:10:47;;;;;;;;;;;;;;;18.58;87.90;101946.28;5064502;28;1467;-75
2023/08/22 02:13:13;;;;;;;;;;;;;;;18.59;88.16;101947.13;5064604;28;1189;-75
2023/08/22 02:15:38;;;;;;;;;;;;;;;18.62;88.11;101940.72;5072015;28;1164;-75
2023/08/22 02:18:04;;;;;;;;;;;;;;;18.63;88.08;101943.19;5048009;28;1959;-76
2023/08/22 02:20:30;;;;;;;;;;;;;;;18.63;88.16;101945.81;5066445;28;1393;-75
2023/08/22 02:22:55;;;;;;;;;;;;;;;18.62;88.19;101940.72;5073622;28;996;-75
2023/08/22 02:25:21;;;;;;;;;;;;;;;18.58;88.16;101943.66;5070998;28;1235;-74
2023/08/22 02:27:46;;;;;;;;;;;;;;;18.56;88.03;101937.72;5067108;28;1265;-75
2023/08/22 02:30:11;;;;;;;;;;;;;;;18.52;88.19;101939.00;5070206;28;1336;-75
2023/08/22 02:32:37;;;;;;;;;;;;;;;18.51;88.11;101933.88;5080397;28;1119;-76
2023/08/22 02:35:03;;;;;;;;;;;;;;;18.46;88.30;101936.97;5077757;28;1188;-76
2023/08/22 02:37:28;;;;;;;;;;;;;;;18.42;88.38;101938.25;5077003;28;1967;-75
2023/08/22 02:39:55;;;;;;;;;;;;;;;18.39;88.44;101935.91;5069078;28;1282;-76
2023/08/22 02:42:20;;;;;;;;;;;;;;;18.37;88.32;101932.63;5074982;28;1321;-76
2023/08/22 02:44:46;;;;;;;;;;;;;;;18.34;88.46;101932.06;5074746;28;1069;-75
2023/08/22 02:47:11;;;;;;;;;;;;;;;18.32;88.48;101929.59;5076147;28;1291;-75
2023/08/22 02:49:36;;;;;;;;;;;;;;;18.30;88.29;101936.81;5068879;28;1151;-75
2023/08/22 02:52:02;;;;;;;;;;;;;;;18.25;88.48;101944.31;5072757;28;1612;-75
2023/08/22 02:54:28;;;;;;;;;;;;;;;18.23;88.70;101941.00;5055822;28;1311;-75
2023/08/22 02:56:54;;;;;;;;;;;;;;;18.21;88.88;101932.44;5069432;28;1910;-75
2023/08/22 02:59:20;;;;;;;;;;;;;;;18.17;88.93;101931.06;5072289;28;1304;-75
2023/08/22 03:01:45;;;;;;;;;;;;;;;18.15;89.23;101943.53;5071975;28;1415;-74
2023/08/22 03:04:10;;;;;;;;;;;;;;;18.12;89.42;101942.03;5070470;28;1194;-75
2023/08/22 03:06:36;;;;;;;;;;;;;;;18.10;89.46;101940.53;5068294;28;1099;-75
2023/08/22 03:09:03;;;;;;;;;;;;;;;18.05;89.68;101928.66;5064406;28;1243;-75
2023/08/22 03:11:28;;;;;;;;;;;;;;;18.06;90.14;101926.84;5042712;28;1359;-75
2023/08/22 03:13:53;;;;;;;;;;;;;;;18.07;89.97;101931.16;5046463;28;1293;-74
2023/08/22 03:16:18;;;;;;;;;;;;;;;18.05;90.00;101933.09;5063476;28;1989;-75
2023/08/22 03:18:43;;;;;;;;;;;;;;;18.03;90.03;101945.53;5059953;28;1360;-75
2023/08/22 03:21:09;;;;;;;;;;;;;;;18.01;90.24;101942.25;5062283;28;1514;-76
2023/08/22 03:23:34;;;;;;;;;;;;;;;17.98;90.46;101935.47;5068935;28;1196;-75
2023/08/22 03:26:00;;;;;;;;;;;;;;;17.91;90.77;101939.66;5077301;28;1048;-75
2023/08/22 03:28:26;;;;;;;;;;;;;;;17.87;91.00;101940.09;5073196;28;1340;-75
2023/08/22 03:30:58;;;;;;;;;;;;;;;17.86;91.07;101928.78;5084554;28;1152;-75
2023/08/22 03:33:24;;;;;;;;;;;;;;;17.86;91.12;101927.94;5066988;28;1115;-75
2023/08/22 03:35:49;;;;;;;;;;;;;;;17.83;91.05;101923.81;5080247;28;1275;-75
2023/08/22 03:38:15;;;;;;;;;;;;;;;17.83;91.30;101923.81;5061191;28;1890;-75
2023/08/22 03:40:40;;;;;;;;;;;;;;;17.80;91.34;101921.47;5081089;28;1115;-75
2023/08/22 03:43:05;;;;;;;;;;;;;;;17.76;91.36;101920.13;5075429;28;1566;-74
2023/08/22 03:45:30;;;;;;;;;;;;;;;17.76;91.43;101917.50;5073237;28;1308;-74
2023/08/22 03:47:55;;;;;;;;;;;;;;;17.76;91.54;101917.50;5077895;28;1297;-74
2023/08/22 03:50:20;;;;;;;;;;;;;;;17.77;91.63;101919.13;5060403;28;1448;-75
2023/08/22 03:52:46;;;;;;;;;;;;;;;17.78;91.55;101915.56;5075302;28;1122;-75
2023/08/22 03:55:11;;;;;;;;;;;;;;;17.78;91.50;101926.06;5061021;28;1196;-75
2023/08/22 03:57:36;;;;;;;;;;;;;;;17.75;91.76;101927.16;5073996;28;1883;-75
2023/08/22 04:00:03;;;;;;;;;;;;;;;17.75;91.73;101926.34;5075291;28;1280;-75
2023/08/22 04:02:28;;;;;;;;;;;;;;;17.74;91.83;101924.69;5050681;28;1528;-75
2023/08/22 04:04:54;;;;;;;;;;;;;;;17.72;91.71;101921.38;5071676;28;1192;-74
2023/08/22 04:07:19;;;;;;;;;;;;;;;17.74;91.91;101917.66;5071339;28;1160;-75
2023/08/22 04:09:45;;;;;;;;;;;;;;;17.76;91.83;101927.97;5070671;28;1212;-74
2023/08/22 04:12:10;;;;;;;;;;;;;;;17.74;91.78;101916.81;5065458;28;1332;-75
2023/08/22 04:14:35;;;;;;;;;;;;;;;17.70;91.73;101918.03;5071304;28;1219;-75
2023/08/22 04:17:00;;;;;;;;;;;;;;;17.65;91.74;101909.78;5046532;28;1969;-75
2023/08/22 04:19:25;;;;;;;;;;;;;;;17.55;92.02;101908.97;5070969;28;1366;-75
2023/08/22 04:21:51;;;;;;;;;;;;;;;17.48;92.11;101909.56;5065530;28;1191;-75
2023/08/22 04:24:16;;;;;;;;;;;;;;;17.45;92.22;101902.00;5052484;28;1197;-75
2023/08/22 04:26:41;;;;;;;;;;;;;;;17.41;92.18;101910.28;5068322;28;1161;-75
2023/08/22 04:29:06;;;;;;;;;;;;;;;17.42;92.21;101904.06;5058901;28;1583;-75
2023/08/22 04:31:32;;;;;;;;;;;;;;;17.45;92.31;101907.25;5071328;28;1638;-75
2023/08/22 04:33:57;;;;;;;;;;;;;;;17.47;92.38;101918.41;5070462;28;1521;-74
2023/08/22 04:36:22;;;;;;;;;;;;;;;17.46;92.47;101911.50;5072504;28;1906;-75
2023/08/22 04:38:49;;;;;;;;;;;;;;;17.49;92.28;101911.22;5077377;28;1143;-75
2023/08/22 04:41:14;;;;;;;;;;;;;;;17.52;92.47;101910.09;5074393;28;1013;-75
2023/08/22 04:43:39;;;;;;;;;;;;;;;17.56;92.27;101905.41;5056231;28;1276;-75
2023/08/22 04:46:04;;;;;;;;;;;;;;;17.59;92.01;101910.34;5077767;28;1457;-75
2023/08/22 04:48:30;;;;;;;;;;;;;;;17.57;92.11;101912.31;5077383;28;1262;-74
2023/08/22 04:50:55;;;;;;;;;;;;;;;17.57;92.11;101917.56;5070881;28;1376;-74
2023/08/22 04:53:20;;;;;;;;;;;;;;;17.52;92.29;101916.19;5070896;28;1238;-75
2023/08/22 04:55:45;;;;;;;;;;;;;;;17.52;92.36;101918.81;5054351;28;1277;-75
2023/08/22 04:58:10;;;;;;;;;;;;;;;17.50;92.40;101918.13;5077361;28;1898;-75
2023/08/22 05:00:36;;;;;;;;;;;;;;;17.46;92.52;101916.75;5071549;28;1525;-75
2023/08/22 05:03:01;;;;;;;;;;;;;;;17.45;92.57;101920.34;5067441;28;1212;-75
2023/08/22 05:05:26;;;;;;;;;;;;;;;17.45;92.47;101914.28;5071646;28;1320;-75
2023/08/22 05:07:51;;;;;;;;;;;;;;;17.43;92.66;101932.78;5051636;28;1116;-74
2023/08/22 05:10:17;;;;;;;;;;;;;;;17.43;92.80;101930.16;5071204;28;1450;-75
2023/08/22 05:12:42;;;;;;;;;;;;;;;17.42;92.74;101925.88;5068178;28;1200;-75
2023/08/22 05:15:07;;;;;;;;;;;;;;;17.40;92.47;101927.81;5068338;28;1347;-75
2023/08/22 05:17:32;;;;;;;;;;;;;;;17.40;92.34;101927.81;5072782;28;1988;-75
2023/08/22 05:19:58;;;;;;;;;;;;;;;17.38;92.65;101924.53;5069521;28;1419;-75
2023/08/22 05:22:23;;;;;;;;;;;;;;;17.38;92.82;101929.78;5070227;28;1390;-75
2023/08/22 05:24:48;;;;;;;;;;;;;;;17.37;92.53;101928.09;5066682;28;1271;-76
2023/08/22 05:27:14;;;;;;;;;;;;;;;17.37;92.97;101928.09;5054506;28;1284;-75
2023/08/22 05:29:39;;;;;;;;;;;;;;;17.39;92.90;101925.34;5070192;28;1179;-75
2023/08/22 05:32:04;;;;;;;;;;;;;;;17.40;92.74;101935.69;5065983;28;1324;-75
2023/08/22 05:34:29;;;;;;;;;;;;;;;17.42;92.76;101935.53;5058911;28;1358;-76
2023/08/22 05:36:54;;;;;;;;;;;;;;;17.43;92.95;101938.03;5080528;28;1890;-75
2023/08/22 05:39:23;;;;;;;;;;;;;;;17.46;93.29;101937.75;5060307;28;1417;-75
2023/08/22 05:41:48;;;;;;;;;;;;;;;17.47;93.30;101931.53;5077077;28;1408;-75
2023/08/22 05:44:13;;;;;;;;;;;;;;;17.51;92.91;101930.28;5058525;28;1176;-75
2023/08/22 05:46:38;;;;;;;;;;;;;;;17.55;93.51;101924.72;5073910;28;1056;-75
2023/08/22 05:49:04;;;;;;;;;;;;;;;17.59;93.08;101934.78;5076928;28;1101;-75
2023/08/22 05:51:29;;;;;;;;;;;;;;;17.60;93.46;101943.47;5072379;28;1143;-75
2023/08/22 05:53:55;;;;;;;;;;;;;;;17.62;93.53;101936.31;5074321;28;1461;-75
2023/08/22 05:56:20;;;;;;;;;;;;;;;17.65;93.51;101946.50;5054926;28;1905;-77
2023/08/22 05:58:45;;;;;;;;;;;;;;;17.69;93.70;101942.63;5070838;28;1092;-76
2023/08/22 06:01:10;;;;;;;;;;;;;;;17.73;93.40;101950.09;5070288;28;1086;-75
2023/08/22 06:03:36;;;;;;;;;;;;;;;17.76;93.66;101948.97;5070102;28;1517;-75
2023/08/22 06:06:02;;;;;;;;;;;;;;;17.80;93.29;101949.53;5065891;28;1361;-75
2023/08/22 06:08:27;;;;;;;;;;;;;;;17.82;93.91;101943.16;5076394;28;1308;-75
2023/08/22 06:10:52;;;;;;;;;;;;;;;17.89;93.94;101944.25;5050645;28;1795;-75
2023/08/22 06:13:18;;;;;;;;;;;;;;;17.93;93.93;101942.97;5055697;28;1365;-75
2023/08/22 06:15:43;;;;;;;;;;;;;;;18.00;94.04;101936.16;5049139;28;1600;-75
2023/08/22 06:18:08;;;;;;;;;;;;;;;18.09;93.74;101933.63;5070910;28;1890;-76
2023/08/22 06:20:37;;;;;;;;;;;;;;;18.15;93.78;101931.22;5067775;28;1304;-76
2023/08/22 06:23:02;;;;;;;;;;;;;;;18.22;93.62;101942.78;5063813;28;1306;-75
2023/08/22 06:25:27;;;;;;;;;;;;;;;18.28;93.43;101933.50;5047554;28;1325;-76
2023/08/22 06:27:52;;;;;;;;;;;;;;;18.34;93.35;101932.91;5070041;28;1372;-75
2023/08/22 06:30:17;;;;;;;;;;;;;;;18.43;93.25;101934.66;5066992;28;1209;-81
2023/08/22 06:32:43;;;;;;;;;;;;;;;18.47;93.02;101936.00;5068655;28;1319;-81
2023/08/22 06:35:08;;;;;;;;;;;;;;;18.52;92.79;101935.53;5067080;28;1329;-82
2023/08/22 06:37:33;;;;;;;;;;;;;;;18.60;92.67;101932.19;5058874;28;1955;-80
2023/08/22 06:39:58;;;;;;;;;;;;;;;18.68;92.68;101935.72;5050705;28;1301;-81
2023/08/22 06:42:24;;;;;;;;;;;;;;;18.77;92.25;101928.75;5063093;28;1367;-78
2023/08/22 06:44:49;;;;;;;;;;;;;;;18.86;91.94;101937.50;5073986;28;1291;-80
2023/08/22 06:47:14;;;;;;;;;;;;;;;18.95;92.01;101945.31;5059039;28;1531;-80
2023/08/22 06:49:39;;;;;;;;;;;;;;;19.05;92.09;101948.69;5067444;28;1448;-80
2023/08/22 06:52:04;;;;;;;;;;;;;;;19.16;91.75;101942.34;5064128;28;1074;-80
2023/08/22 06:54:30;;;;;;;;;;;;;;;19.27;91.33;101941.28;5069814;28;1528;-80
2023/08/22 06:56:56;;;;;;;;;;;;;;;19.35;90.90;101950.03;5065008;28;1921;-81
2023/08/22 06:59:21;;;;;;;;;;;;;;;19.39;90.42;101945.28;5072618;28;1235;-81
2023/08/22 07:01:46;;;;;;;;;;;;;;;19.43;90.04;101946.59;5074132;28;1559;-80
2023/08/22 07:04:11;;;;;;;;;;;;;;;19.48;89.77;101944.34;5069842;28;1308;-80
2023/08/22 07:06:37;;;;;;;;;;;;;;;19.54;89.88;101948.97;5067333;28;1211;-80
2023/08/22 07:09:03;;;;;;;;;;;;;;;19.59;89.85;101944.09;5071083;28;1303;-81
2023/08/22 07:11:28;;;;;;;;;;;;;;;19.65;89.52;101950.53;5072520;28;1188;-81
2023/08/22 07:13:53;;;;;;;;;;;;;;;19.68;88.60;101938.91;5058509;28;1574;-81
2023/08/22 07:16:18;;;;;;;;;;;;;;;19.71;88.44;101938.56;5056791;28;1237;-81
2023/08/22 07:18:44;;;;;;;;;;;;;;;19.75;88.31;101945.16;5077416;28;1947;-80
2023/08/22 07:21:09;;;;;;;;;;;;;;;19.77;87.94;101953.72;5054431;28;2356;-81
2023/08/22 07:23:34;;;;;;;;;;;;;;;19.83;87.33;101963.63;5074257;28;1178;-80
2023/08/22 07:26:00;;;;;;;;;;;;;;;19.88;87.30;101966.59;5072816;28;1186;-81
2023/08/22 07:28:25;;;;;;;;;;;;;;;19.93;87.18;101964.31;5067215;28;1080;-81
2023/08/22 07:30:51;;;;;;;;;;;;;;;20.00;86.68;101960.06;5074321;28;1043;-81
2023/08/22 07:33:16;;;;;;;;;;;;;;;20.09;86.33;101959.13;5072108;28;1058;-76
2023/08/22 07:35:41;;;;;;;;;;;;;;;20.26;86.18;101953.91;5073528;28;1172;-79
2023/08/22 07:38:07;;;;;;;;;;;;;;;20.34;85.22;101962.63;5068863;28;1898;-78
2023/08/22 07:40:36;;;;;;;;;;;;;;;20.40;84.85;101955.91;5071390;28;1083;-78
2023/08/22 07:43:02;;;;;;;;;;;;;;;20.40;84.82;101950.63;5063231;28;1074;-77
2023/08/22 07:45:27;;;;;;;;;;;;;;;20.46;83.83;101959.72;5066250;28;1011;-76
2023/08/22 07:47:52;;;;;;;;;;;;;;;20.50;83.22;101975.06;5064718;28;992;-78
2023/08/22 07:50:18;;;;;;;;;;;;;;;20.56;82.40;101966.50;5077975;28;1037;-79
2023/08/22 07:52:43;;;;;;;;;;;;;;;20.60;82.64;101970.47;5060177;28;1203;-77
2023/08/22 07:55:08;;;;;;;;;;;;;;;20.65;82.25;101976.06;5069049;28;1036;-76
2023/08/22 07:57:33;;;;;;;;;;;;;;;20.72;81.57;101975.41;5064735;28;1906;-78
2023/08/22 08:00:00;;;;;;;;;;;;;;;20.81;81.80;101975.25;5057416;28;1035;-79
2023/08/22 08:02:25;;;;;;;;;;;;;;;20.88;81.14;101975.44;5069945;28;1315;-78
2023/08/22 08:04:51;;;;;;;;;;;;;;;20.95;80.29;101968.50;5078024;28;1127;-77
2023/08/22 08:07:16;;;;;;;;;;;;;;;21.03;80.33;101971.13;5072256;28;1272;-79
2023/08/22 08:09:41;;;;;;;;;;;;;;;21.08;80.34;101971.44;5075517;28;1661;-79
2023/08/22 08:12:06;;;;;;;;;;;;;;;21.12;80.11;101978.06;5068401;28;1656;-77
2023/08/22 08:14:32;;;;;;;;;;;;;;;21.12;79.34;101982.50;5078053;28;1261;-78
2023/08/22 08:16:57;;;;;;;;;;;;;;;21.09;78.49;101988.91;5072027;28;1977;-80
2023/08/22 08:19:22;;;;;;;;;;;;;;;21.10;77.99;101980.00;5075062;28;1450;-79
2023/08/22 08:21:48;;;;;;;;;;;;;;;21.13;77.98;101984.97;5074209;28;1095;-79
2023/08/22 08:24:14;;;;;;;;;;;;;;;21.16;77.74;101999.63;5067651;28;1368;-79
2023/08/22 08:26:40;;;;;;;;;;;;;;;21.13;77.45;102005.25;5073238;28;1254;-79
2023/08/22 08:29:05;;;;;;;;;;;;;;;21.12;75.96;102001.78;5071701;28;1701;-77
2023/08/22 08:31:30;;;;;;;;;;;;;;;21.07;76.36;102003.28;5065194;28;1674;-80
2023/08/22 08:33:55;;;;;;;;;;;;;;;21.10;76.05;102006.41;5048216;28;1315;-79
2023/08/22 08:36:20;;;;;;;;;;;;;;;21.07;76.01;102001.47;5067629;28;1172;-79
2023/08/22 08:38:46;;;;;;;;;;;;;;;21.09;75.36;102004.75;5069488;28;1897;-80
2023/08/22 08:41:11;;;;;;;;;;;;;;;21.08;75.48;102007.56;5070089;28;1134;-77
2023/08/22 08:43:37;;;;;;;;;;;;;;;21.08;74.92;102003.09;5066806;28;1448;-78
2023/08/22 08:46:03;;;;;;;;;;;;;;;21.13;75.25;102006.06;5061886;28;1074;-76
2023/08/22 08:48:29;;;;;;;;;;;;;;;21.16;75.02;102011.03;5065635;28;1086;-80
2023/08/22 08:50:55;;;;;;;;;;;;;;;21.13;74.78;102014.00;5065071;28;1530;-78
2023/08/22 08:53:21;;;;;;;;;;;;;;;21.17;74.66;102012.69;5059080;28;1278;-81
2023/08/22 08:55:46;;;;;;;;;;;;;;;21.15;74.15;102009.38;5060241;28;1594;-81
2023/08/22 08:58:11;;;;;;;;;;;;;;;21.19;74.28;102010.69;5066683;28;1965;-79
2023/08/22 09:00:37;;;;;;;;;;;;;;;21.26;74.41;102004.75;5074938;28;1487;-80
2023/08/22 09:03:02;;;;;;;;;;;;;;;21.35;74.17;102003.78;5063498;28;1404;-79
2023/08/22 09:05:29;;;;;;;;;;;;;;;21.35;73.90;102009.88;5074501;28;1345;-79
2023/08/22 09:07:54;;;;;;;;;;;;;;;21.47;72.99;102015.66;5071108;28;1185;-76
2023/08/22 09:10:31;;;;;;;;;;;;;;;21.39;73.56;101999.81;5071114;28;1491;-81
2023/08/22 09:13:00;;;;;;;;;;;;;;;21.47;73.93;102008.53;5059673;28;1465;-81
2023/08/22 09:15:25;;;;;;;;;;;;;;;21.47;73.09;102007.72;5070710;28;1367;-80
2023/08/22 09:17:54;;;;;;;;;;;;;;;21.53;73.28;102014.97;5066268;28;1889;-76
2023/08/22 09:20:19;;;;;;;;;;;;;;;21.51;73.18;102003.75;5067729;28;1437;-79
2023/08/22 09:22:44;;;;;;;;;;;;;;;21.55;73.02;101999.78;5057846;28;1306;-80
2023/08/22 09:25:10;;;;;;;;;;;;;;;21.59;73.40;102005.56;5068134;28;1158;-80
2023/08/22 09:27:37;;;;;;;;;;;;;;;21.67;72.72;102003.69;5069624;28;1161;-80
2023/08/22 09:30:04;;;;;;;;;;;;;;;21.79;73.83;102005.97;5068736;28;1466;-83
2023/08/22 09:32:29;;;;;;;;;;;;;;;21.95;73.06;102005.91;5066218;28;1223;-81
2023/08/22 09:34:56;;;;;;;;;;;;;;;22.05;72.64;102001.25;5070170;28;1085;-79
2023/08/22 09:37:29;;;;;;;;;;;;;;;22.16;72.88;102000.91;5068622;28;1897;-80
2023/08/22 09:39:55;;;;;;;;;;;;;;;22.24;71.98;102016.72;5052691;28;1408;-83
2023/08/22 09:42:20;;;;;;;;;;;;;;;22.30;71.39;102004.63;5062782;28;1086;-81
2023/08/22 09:44:45;;;;;;;;;;;;;;;22.38;71.93;101995.84;5060308;28;1090;-76
2023/08/22 09:47:11;;;;;;;;;;;;;;;22.51;71.48;101996.09;5060047;28;1091;-79
2023/08/22 09:49:38;;;;;;;;;;;;;;;22.58;71.47;101991.75;5046071;28;1208;-81
2023/08/22 09:52:04;;;;;;;;;;;;;;;22.63;70.95;101989.41;5058706;28;1304;-82
2023/08/22 09:54:29;;;;;;;;;;;;;;;22.67;69.51;101995.97;5064842;28;1233;-79
2023/08/22 09:56:56;;;;;;;;;;;;;;;22.63;67.76;101994.69;5062759;28;1898;-81
2023/08/22 09:59:23;;;;;;;;;;;;;;;22.67;68.99;101995.97;5070874;28;1353;-83
2023/08/22 10:01:49;;;;;;;;;;;;;;;22.82;68.22;101992.56;5068183;28;1274;-82
2023/08/22 10:04:16;;;;;;;;;;;;;;;22.69;68.30;101988.69;5067876;28;1386;-77
2023/08/22 10:06:41;;;;;;;;;;;;;;;22.67;68.28;102001.28;5072135;28;1094;-82
2023/08/22 10:09:12;;;;;;;;;;;;;;;22.65;68.07;102002.44;5066755;28;1399;-80
2023/08/22 10:11:41;;;;;;;;;;;;;;;22.69;68.23;102001.91;5064625;28;1383;-82
2023/08/22 10:14:07;;;;;;;;;;;;;;;22.87;65.98;102000.78;5039600;28;1479;-81
2023/08/22 10:16:34;;;;;;;;;;;;;;;22.83;65.54;102002.16;5075943;28;1893;-86
2023/08/22 10:19:01;;;;;;;;;;;;;;;22.92;66.56;101998.47;5060228;28;1429;-79
2023/08/22 10:21:26;;;;;;;;;;;;;;;22.92;66.07;101999.28;5069864;28;1388;-87
2023/08/22 10:23:51;;;;;;;;;;;;;;;22.91;65.87;101996.81;5069439;28;1260;-86
2023/08/22 10:26:17;;;;;;;;;;;;;;;22.98;64.76;101988.00;5066301;28;1244;-83
2023/08/22 10:28:43;;;;;;;;;;;;;;;23.00;63.13;102001.06;5073165;28;1247;-85
2023/08/22 10:31:08;;;;;;;;;;;;;;;23.03;64.83;102003.34;5064297;28;1408;-85
2023/08/22 10:33:34;;;;;;;;;;;;;;;23.08;64.45;102008.91;5067087;28;1304;-82
2023/08/22 10:36:15;;;;;;;;;;;;;;;23.16;63.99;101998.25;5065816;28;1180;-84
2023/08/22 10:38:48;;;;;;;;;;;;;;;23.25;64.57;101994.53;5061260;28;1894;-84
2023/08/22 10:41:13;;;;;;;;;;;;;;;23.42;62.67;101997.03;5059260;28;1260;-81
2023/08/22 10:43:38;;;;;;;;;;;;;;;23.46;63.53;101995.66;5065207;28;1298;-75
2023/08/22 10:46:03;;;;;;;;;;;;;;;23.51;62.88;101993.28;5051190;28;1288;-76
2023/08/22 10:48:29;;;;;;;;;;;;;;;23.54;62.93;101993.72;5064615;28;1309;-76
2023/08/22 10:51:03;;;;;;;;;;;;;;;23.59;62.61;101990.53;5070520;28;1273;-76
2023/08/22 10:53:29;;;;;;;;;;;;;;;23.55;62.04;101983.97;5070924;28;1543;-75
2023/08/22 10:55:55;;;;;;;;;;;;;;;23.51;61.83;101988.81;5065848;28;1071;-76
2023/08/22 10:58:34;;;;;;;;;;;;;;;23.46;60.24;101995.66;5070588;28;1898;-76
2023/08/22 11:01:00;;;;;;;;;;;;;;;23.48;59.47;101996.28;5062934;28;978;-76
2023/08/22 11:03:26;;;;;;;;;;;;;;;23.40;60.57;101996.38;5071906;28;1232;-76
2023/08/22 11:05:51;;;;;;;;;;;;;;;23.42;60.16;101999.66;5075462;28;1347;-78
2023/08/22 11:08:16;;;;;;;;;;;;;;;23.42;58.13;102004.97;5079437;28;1164;-77
2023/08/22 11:10:43;;;;;;;;;;;;;;;23.41;59.17;102003.31;5073208;28;1346;-77
2023/08/22 11:13:08;;;;;;;;;;;;;;;23.37;59.53;102010.78;5077655;28;1200;-77
2023/08/22 11:15:34;;;;;;;;;;;;;;;23.63;56.46;102012.22;5080424;28;1188;-76
2023/08/22 11:17:59;;;;;;;;;;;;;;;23.40;57.51;102012.25;5080861;28;1893;-76
2023/08/22 11:20:25;;;;;;;;;;;;;;;23.50;56.41;102010.16;5077753;28;1176;-76
2023/08/22 11:22:50;;;;;;;;;;;;;;;23.42;53.82;102010.25;5073322;28;1166;-76
2023/08/22 11:25:21;;;;;;;;;;;;;;;23.32;57.57;102011.34;5065568;28;1368;-78
2023/08/22 11:27:46;;;;;;;;;;;;;;;23.45;56.67;102004.59;5058548;28;1175;-76
2023/08/22 11:30:12;;;;;;;;;;;;;;;23.43;56.40;102011.91;5069760;28;1208;-77
2023/08/22 11:32:38;;;;;;;;;;;;;;;23.49;56.37;102016.47;5068437;28;1122;-76
2023/08/22 11:35:04;;;;;;;;;;;;;;;23.52;57.55;102000.22;5071241;28;1221;-77
2023/08/22 11:37:34;;;;;;;;;;;;;;;23.59;57.11;102011.75;5070638;28;1933;-77
2023/08/22 11:39:59;;;;;;;;;;;;;;;23.61;57.45;102015.00;5076218;28;1035;-77
2023/08/22 11:42:26;;;;;;;;;;;;;;;23.70;57.74;101998.06;5070023;28;1121;-77
2023/08/22 11:44:51;;;;;;;;;;;;;;;23.82;57.54;102011.69;5071728;28;1126;-78
2023/08/22 11:47:16;;;;;;;;;;;;;;;23.91;57.54;102015.84;5058391;28;1053;-76
2023/08/22 11:49:41;;;;;;;;;;;;;;;24.02;56.82;102011.91;5068857;28;1039;-77
2023/08/22 11:52:07;;;;;;;;;;;;;;;24.05;56.85;102000.97;5073378;28;1241;-77
2023/08/22 11:54:33;;;;;;;;;;;;;;;24.05;57.67;102006.25;5070566;28;1059;-78
2023/08/22 11:56:59;;;;;;;;;;;;;;;24.18;55.93;102014.34;5066632;28;1897;-77
2023/08/22 11:59:24;;;;;;;;;;;;;;;23.93;56.42;102013.03;5070805;28;1003;-77
2023/08/22 12:01:49;;;;;;;;;;;;;;;23.93;57.87;102010.38;5066676;28;1352;-77
2023/08/22 12:04:15;;;;;;;;;;;;;;;24.01;57.22;102004.97;5070296;28;1115;-78
2023/08/22 12:06:41;;;;;;;;;;;;;;;24.04;57.89;102004.63;5053331;28;1312;-78
2023/08/22 12:09:11;;;;;;;;;;;;;;;24.15;57.36;102009.44;5061649;28;1126;-77
2023/08/22 12:11:36;;;;;;;;;;;;;;;24.14;57.67;102005.13;5072219;28;1104;-77
2023/08/22 12:14:01;;;;;;;;;;;;;;;24.16;57.94;102008.44;5071277;28;1184;-77
2023/08/22 12:16:27;;;;;;;;;;;;;;;24.15;58.17;102011.28;5073142;28;1638;-77
2023/08/22 12:18:52;;;;;;;;;;;;;;;24.11;57.96;102010.81;5072016;28;1894;-77
2023/08/22 12:21:17;;;;;;;;;;;;;;;24.12;58.25;102007.16;5060684;28;1671;-77
2023/08/22 12:23:42;;;;;;;;;;;;;;;24.15;58.11;102006.78;5053485;28;1324;-78
2023/08/22 12:26:07;;;;;;;;;;;;;;;24.16;58.22;102012.91;5066372;28;1376;-78
2023/08/22 12:28:33;;;;;;;;;;;;;;;24.06;58.48;101997.28;5059721;28;1337;-77
2023/08/22 12:30:58;;;;;;;;;;;;;;;24.07;58.53;102014.84;5055584;28;1350;-77
2023/08/22 12:33:23;;;;;;;;;;;;;;;24.04;58.95;102021.34;5063194;28;1303;-77
2023/08/22 12:35:48;;;;;;;;;;;;;;;24.05;58.96;102011.56;5062789;28;1488;-77
2023/08/22 12:38:13;;;;;;;;;;;;;;;24.04;58.79;102010.75;5067304;28;1971;-77
2023/08/22 12:40:39;;;;;;;;;;;;;;;24.00;59.04;102013.94;5069422;28;1225;-77